Terminal Aerodrome Forecast
Issued by NWS

Home | Current Version | Previous Version | Text Only | Print | Product List | Glossary Off
Versions: 1 2 3 4 5 6 7 8 9 10 11 12 13 14 15 16 17

000
FTUS43 KDVN 240520
TAFCID
TAF
KCID 240520Z 2406/2506 13004KT P6SM BKN060
     FM240800 12008KT P6SM VCSH BKN040
      TEMPO 2414/2418 4SM -SHRA BKN025
     FM242000 14014G21KT P6SM VCTS BKN030CB
      TEMPO 2421/2501 3SM TSRA BR OVC020CB
     FM250100 18011KT 6SM BR OVC015=

USA.gov is the U.S. government's official web portal to all federal, state and local government web resources and services.